createdAt,value
2023-08-14T00:02:06.384Z,99287.94
2023-08-14T00:07:08.640Z,99281.88
2023-08-14T00:12:10.866Z,99271.69
2023-08-14T00:17:13.083Z,99264.91
2023-08-14T00:22:15.548Z,99247.59
2023-08-14T00:27:17.899Z,99265.06
2023-08-14T00:32:20.299Z,99268.00
2023-08-14T00:37:24.410Z,99255.44
2023-08-14T00:42:26.568Z,99231.63
2023-08-14T00:47:28.770Z,99225.81
2023-08-14T00:52:33.336Z,99240.09
2023-08-14T00:57:37.067Z,99232.34
2023-08-14T01:02:39.977Z,99225.22
2023-08-14T01:07:42.133Z,99200.66
2023-08-14T01:12:54.616Z,99218.13
2023-08-14T01:18:03.082Z,99225.16
2023-08-14T01:23:18.790Z,99219.75
2023-08-14T01:28:21.752Z,99232.41
2023-08-14T01:33:23.971Z,99231.44
2023-08-14T01:38:48.665Z,99246.97
2023-08-14T01:43:56.245Z,99240.13
2023-08-14T01:49:00.686Z,99244.69
2023-08-14T01:54:03.032Z,99243.00
2023-08-14T01:59:05.185Z,99236.97
2023-08-14T02:04:10.332Z,99247.59
2023-08-14T02:09:12.653Z,99247.63
2023-08-14T02:14:14.771Z,99235.53
2023-08-14T02:19:17.301Z,99224.44
2023-08-14T02:24:19.520Z,99234.09
2023-08-14T02:29:22.464Z,99229.72
2023-08-14T02:34:44.204Z,99248.59
2023-08-14T02:39:47.147Z,99242.72
2023-08-14T02:44:49.706Z,99249.91
2023-08-14T02:49:52.249Z,99247.53
2023-08-14T02:54:54.473Z,99249.81
2023-08-14T02:59:56.690Z,99250.78
2023-08-14T03:04:58.905Z,99247.03
2023-08-14T03:10:01.157Z,99243.53
2023-08-14T03:15:03.844Z,99236.38
2023-08-14T03:20:07.464Z,99249.41
2023-08-14T03:25:10.010Z,99234.63
2023-08-14T03:30:14.095Z,99239.94
2023-08-14T03:35:16.423Z,99237.88
2023-08-14T03:40:18.825Z,99237.72
2023-08-14T03:45:21.558Z,99245.88
2023-08-14T03:50:23.876Z,99238.88
2023-08-14T03:55:26.121Z,99243.28
2023-08-14T04:00:28.349Z,99255.44
2023-08-14T04:05:30.554Z,99237.06
2023-08-14T04:10:33.360Z,99242.63
2023-08-14T04:15:35.552Z,99236.81
2023-08-14T04:20:37.753Z,99245.63
2023-08-14T04:25:40.037Z,99252.50
2023-08-14T04:30:42.469Z,99238.03
2023-08-14T04:35:44.818Z,99235.94
2023-08-14T04:40:47.061Z,99225.31
2023-08-14T04:45:49.569Z,99232.00
2023-08-14T04:50:52.374Z,99217.50
2023-08-14T04:55:54.826Z,99234.81
2023-08-14T05:00:57.542Z,99238.06
2023-08-14T05:05:59.785Z,99225.00
2023-08-14T05:11:03.260Z,99229.81
2023-08-14T05:16:08.866Z,99228.25
2023-08-14T05:21:13.153Z,99243.91
2023-08-14T05:26:15.393Z,99230.03
2023-08-14T05:31:17.649Z,99241.94
2023-08-14T05:36:19.858Z,99250.28
2023-08-14T05:41:23.068Z,99242.72
2023-08-14T05:46:25.700Z,99249.97
2023-08-14T05:51:28.017Z,99258.38
2023-08-14T05:56:30.178Z,99244.16
2023-08-14T06:01:32.499Z,99269.06
2023-08-14T06:06:35.028Z,99264.09
2023-08-14T06:11:37.157Z,99268.88
2023-08-14T06:16:39.375Z,99269.84
2023-08-14T06:21:41.797Z,99266.41
2023-08-14T06:26:43.926Z,99265.59
2023-08-14T06:31:46.116Z,99286.34
2023-08-14T06:36:48.308Z,99264.59
2023-08-14T06:41:50.594Z,99275.81
2023-08-14T06:46:54.696Z,99267.53
2023-08-14T06:51:57.004Z,99261.19
2023-08-14T06:56:59.677Z,99294.38
2023-08-14T07:02:02.430Z,99284.63
2023-08-14T07:07:04.589Z,99286.81
2023-08-14T07:12:06.999Z,99307.38
2023-08-14T07:17:09.300Z,99315.66
2023-08-14T07:22:11.529Z,99318.72
2023-08-14T07:27:13.628Z,99323.34
2023-08-14T07:32:16.174Z,99321.16
2023-08-14T07:37:18.671Z,99335.22
2023-08-14T07:42:21.202Z,99334.25
2023-08-14T07:47:23.974Z,99338.84
2023-08-14T07:52:28.716Z,99342.00
2023-08-14T07:57:31.025Z,99336.72
2023-08-14T08:02:33.325Z,99363.28
2023-08-14T08:07:35.663Z,99363.47
2023-08-14T08:12:37.997Z,99366.25
2023-08-14T08:17:40.650Z,99371.34
2023-08-14T08:22:42.946Z,99369.69
2023-08-14T08:27:45.092Z,99366.63
2023-08-14T08:32:47.361Z,99376.84
2023-08-14T08:37:49.525Z,99377.75
2023-08-14T08:42:52.702Z,99388.94
2023-08-14T08:47:57.817Z,99379.19
2023-08-14T08:53:00.502Z,99392.44
2023-08-14T08:58:03.425Z,99402.38
2023-08-14T09:03:06.016Z,99401.75
2023-08-14T09:08:09.912Z,99409.22
2023-08-14T09:18:19.234Z,99413.03
2023-08-14T09:23:21.634Z,99446.94
2023-08-14T09:28:23.773Z,99440.59
2023-08-14T09:33:26.088Z,99449.38
2023-08-14T09:38:28.627Z,99446.22
2023-08-14T09:43:32.475Z,99448.97
2023-08-14T09:48:45.902Z,99440.56
2023-08-14T09:53:51.826Z,99458.09
2023-08-14T09:58:56.090Z,99455.81
2023-08-14T10:03:58.741Z,99456.03
2023-08-14T10:09:03.709Z,99454.25
2023-08-14T10:14:07.651Z,99468.00
2023-08-14T10:19:13.835Z,99465.81
2023-08-14T10:24:16.700Z,99467.97
2023-08-14T10:29:19.157Z,99469.59
2023-08-14T10:34:22.716Z,99475.56
2023-08-14T10:39:36.143Z,99485.06
2023-08-14T10:44:38.637Z,99492.31
2023-08-14T10:49:49.780Z,99490.19
2023-08-14T10:54:53.379Z,99490.88
2023-08-14T10:59:57.659Z,99503.28
2023-08-14T11:05:13.623Z,99497.59
2023-08-14T11:10:16.362Z,99508.28
2023-08-14T11:15:21.526Z,99507.00
2023-08-14T11:20:26.454Z,99501.41
2023-08-14T11:25:28.892Z,99508.88
2023-08-14T11:30:36.007Z,99513.91
2023-08-14T11:35:38.334Z,99521.56
2023-08-14T11:40:43.742Z,99531.91
2023-08-14T11:45:46.111Z,99516.34
2023-08-14T11:50:48.784Z,99518.97
2023-08-14T11:55:51.412Z,99526.25
2023-08-14T12:00:53.954Z,99534.09
2023-08-14T12:06:05.184Z,99539.53
2023-08-14T12:11:08.485Z,99535.75
2023-08-14T12:16:17.781Z,99542.00
2023-08-14T12:21:21.536Z,99535.50
2023-08-14T12:26:24.018Z,99542.03
2023-08-14T12:31:26.262Z,99542.31
2023-08-14T12:36:28.572Z,99524.69
2023-08-14T12:41:31.215Z,99536.38
2023-08-14T12:46:33.594Z,99552.38
2023-08-14T12:51:36.960Z,99531.47
2023-08-14T12:56:39.435Z,99541.78
2023-08-14T13:01:47.267Z,99534.97
2023-08-14T13:06:51.030Z,99555.34
2023-08-14T13:11:53.329Z,99542.31
2023-08-14T13:16:55.667Z,99558.31
2023-08-14T13:21:58.015Z,99559.13
2023-08-14T13:27:08.625Z,99555.88
2023-08-14T13:32:12.059Z,99560.50
2023-08-14T13:37:14.204Z,99550.69
2023-08-14T13:42:16.621Z,99553.69
2023-08-14T13:47:19.164Z,99556.88
2023-08-14T13:52:21.533Z,99557.91
2023-08-14T13:57:23.807Z,99559.81
2023-08-14T14:02:26.018Z,99547.91
2023-08-14T14:07:32.077Z,99567.22
2023-08-14T14:12:39.230Z,99552.25
2023-08-14T14:17:41.713Z,99556.34
2023-08-14T14:22:44.246Z,99549.53
2023-08-14T14:27:46.494Z,99556.38
2023-08-14T14:32:48.691Z,99557.50
2023-08-14T14:37:50.826Z,99554.78
2023-08-14T14:42:53.194Z,99561.28
2023-08-14T14:47:55.375Z,99543.91
2023-08-14T14:52:58.230Z,99556.38
2023-08-14T14:58:00.386Z,99560.50
2023-08-14T15:03:02.952Z,99562.16
2023-08-14T15:08:05.318Z,99564.84
2023-08-14T15:13:07.582Z,99561.88
2023-08-14T15:18:10.217Z,99571.91
2023-08-14T15:23:12.618Z,99577.91
2023-08-14T15:28:14.853Z,99581.44
2023-08-14T15:33:16.990Z,99576.78
2023-08-14T15:38:19.429Z,99580.88
2023-08-14T15:43:21.924Z,99580.34
2023-08-14T15:48:24.131Z,99586.56
2023-08-14T15:53:26.352Z,99593.91
2023-08-14T15:58:28.556Z,99597.97
2023-08-14T16:03:31.197Z,99599.28
2023-08-14T16:08:33.512Z,99606.06
2023-08-14T16:13:35.650Z,99609.56
2023-08-14T16:18:38.138Z,99620.69
2023-08-14T16:23:40.376Z,99614.09
2023-08-14T16:28:42.653Z,99606.44
2023-08-14T16:33:46.596Z,99614.47
2023-08-14T16:38:48.809Z,99625.22
2023-08-14T16:43:51.074Z,99622.41
2023-08-14T16:48:53.638Z,99623.06
2023-08-14T16:53:56.361Z,99630.56
2023-08-14T16:58:58.586Z,99631.81
2023-08-14T17:04:00.939Z,99633.59
2023-08-14T17:09:03.210Z,99642.72
2023-08-14T17:14:05.516Z,99641.53
2023-08-14T17:19:07.739Z,99654.72
2023-08-14T17:24:10.175Z,99646.25
2023-08-14T17:29:12.386Z,99635.53
2023-08-14T17:34:15.496Z,99654.00
2023-08-14T17:39:17.796Z,99648.50
2023-08-14T17:44:19.910Z,99653.03
2023-08-14T17:49:22.124Z,99633.19
2023-08-14T17:54:24.392Z,99628.72
2023-08-14T17:59:26.552Z,99651.56
2023-08-14T18:04:28.773Z,99643.69
2023-08-14T18:09:30.840Z,99639.84
2023-08-14T18:14:32.983Z,99653.94
2023-08-14T18:19:35.144Z,99654.41
2023-08-14T18:24:37.447Z,99660.56
2023-08-14T18:29:39.654Z,99659.44
2023-08-14T18:34:43.983Z,99660.22
2023-08-14T18:39:46.200Z,99650.06
2023-08-14T18:44:48.296Z,99676.59
2023-08-14T18:49:50.471Z,99684.97
2023-08-14T18:54:52.549Z,99672.16
2023-08-14T18:59:54.685Z,99673.94
2023-08-14T19:04:57.210Z,99680.53
2023-08-14T19:09:59.551Z,99677.28
2023-08-14T19:15:01.666Z,99692.69
2023-08-14T19:20:06.152Z,99692.94
2023-08-14T19:25:09.752Z,99698.09
2023-08-14T19:30:12.538Z,99696.19
2023-08-14T19:35:14.639Z,99685.00
2023-08-14T19:40:16.825Z,99698.34
2023-08-14T19:45:18.997Z,99686.19
2023-08-14T19:50:21.227Z,99695.88
2023-08-14T19:55:23.493Z,99686.06
2023-08-14T20:00:26.282Z,99694.25
2023-08-14T20:05:28.706Z,99691.47
2023-08-14T20:10:30.817Z,99699.56
2023-08-14T20:15:35.942Z,99695.31
2023-08-14T20:20:41.909Z,99703.19
2023-08-14T20:25:46.368Z,99703.66
2023-08-14T20:30:48.622Z,99703.66
2023-08-14T20:35:50.919Z,99704.16
2023-08-14T20:40:55.687Z,99705.94
2023-08-14T20:45:57.965Z,99707.75
2023-08-14T20:51:03.086Z,99706.19
2023-08-14T20:56:05.533Z,99720.28
2023-08-14T21:01:07.612Z,99717.97
2023-08-14T21:06:09.762Z,99686.53
2023-08-14T21:11:15.183Z,99710.44
2023-08-14T21:16:17.508Z,99724.31
2023-08-14T21:21:20.702Z,99727.19
2023-08-14T21:26:22.784Z,99730.84
2023-08-14T21:31:24.942Z,99730.13
2023-08-14T21:36:27.237Z,99735.47
2023-08-14T21:41:29.409Z,99721.41
2023-08-14T21:46:34.251Z,99746.84
2023-08-14T21:51:37.453Z,99756.25
2023-08-14T21:56:39.772Z,99751.59
2023-08-14T22:01:43.983Z,99747.72
2023-08-14T22:06:46.400Z,99741.88
2023-08-14T22:11:48.566Z,99753.00
2023-08-14T22:16:51.112Z,99752.66
2023-08-14T22:21:53.203Z,99748.56
2023-08-14T22:26:55.404Z,99757.41
2023-08-14T22:31:57.605Z,99749.19
2023-08-14T22:36:59.760Z,99739.34
2023-08-14T22:42:01.835Z,99742.28
2023-08-14T22:47:03.961Z,99737.75
2023-08-14T22:52:06.255Z,99738.22
2023-08-14T22:57:08.483Z,99747.59
2023-08-14T23:02:10.771Z,99751.81
2023-08-14T23:07:12.842Z,99757.91
2023-08-14T23:12:14.914Z,99760.03
2023-08-14T23:17:17.311Z,99754.50
2023-08-14T23:22:19.437Z,99759.53
2023-08-14T23:27:21.800Z,99752.84
2023-08-14T23:32:24.050Z,99754.38
2023-08-14T23:37:26.878Z,99768.06
2023-08-14T23:42:29.060Z,99774.97
2023-08-14T23:47:31.220Z,99762.09
2023-08-14T23:52:33.489Z,99770.31
2023-08-14T23:57:35.583Z,99775.56
